Observations for NEW YORK JF KENNEDY, NY (JFK)

KJFK 220451Z 19006KT 10SM SCT250 23/22 A3010 RMK AO2 SLP192 T02330222 403060211 
KJFK 220351Z 22007KT 10SM SCT250 24/22 A3011 RMK AO2 SLP194 T02390222   
KJFK 220251Z 20007KT 10SM SCT250 24/22 A3011 RMK AO2 SLP197 T02440222 50000 
KJFK 220151Z 21009KT 10SM BKN250 25/23 A3012 RMK AO2 SLP201 T02500228   
KJFK 220051Z 20012KT 10SM FEW050 BKN250 26/23 A3012 RMK AO2 SLP201 T02560228
KJFK 212351Z 19012KT 10SM FEW050 FEW150 BKN250 25/23 A3011 RMK AO2 SLP197 T02500233 10289 20250 55006   
KJFK 212251Z 19015KT 10SM FEW050 BKN250 26/22 A3010 RMK AO2 SLP194 T02610222
KJFK 212151Z 19015KT 10SM FEW050 FEW250 27/22 A3013 RMK AO2 SLP202 T02670217
KJFK 212051Z 19018KT 10SM SCT050 SCT180 BKN250 27/21 A3013 RMK AO2 SLP203 T02720211 58013   
KJFK 211951Z 19015KT 10SM FEW045 FEW200 BKN250 28/21 A3015 RMK AO2 SLP209 T02780206 
KJFK 211851Z 19012KT 10SM FEW042 BKN250 27/20 A3016 RMK AO2 SLP212 T02670200
KJFK 211751Z 19009KT 10SM FEW042 FEW190 BKN250 28/19 A3017 RMK AO2 SLP216 T02830194 10306 20239 56014   
KJFK 211651Z 20012KT 10SM SCT250 29/18 A3018 RMK AO2 SLP218 T02940178   
KJFK 211551Z 23008KT 10SM SCT270 29/19 A3020 RMK AO2 SLP226 T02890194   
KJFK 211451Z 19007KT 10SM BKN270 27/21 A3021 RMK AO2 SLP229 T02670211 55001 
KJFK 211351Z VRB05KT 10SM FEW220 BKN290 28/18 A3020 RMK AO2 SLP226 T02780183
KJFK 211251Z 24006KT 10SM BKN290 26/19 A3021 RMK AO2 SLP230 T02610194   
KJFK 211151Z 26007KT 10SM BKN320 24/19 A3021 RMK AO2 SLP230 T02390194 10239 20211 51010 
KJFK 211051Z 23006KT 10SM BKN320 22/20 A3020 RMK AO2 SLP227 T02220200   
KJFK 210951Z 25007KT 10SM FEW250 22/19 A3019 RMK AO2 SLP223 T02170194   
KJFK 210851Z 25006KT 10SM FEW250 22/19 A3018 RMK AO2 SLP220 T02170194 53003 
KJFK 210751Z 23004KT 10SM FEW250 22/20 A3017 RMK AO2 SLP215 T02170200   
KJFK 210651Z 22005KT 10SM CLR 22/19 A3017 RMK AO2 SLP215 T02170189  
KJFK 210551Z 26005KT 10SM CLR 23/18 A3018 RMK AO2 SLP218 T02330178 10272 20228 51009
KJFK 210451Z 25006KT 10SM FEW250 23/19 A3017 RMK AO2 SLP216 T02280194 402940217